createdAt,value
2022-11-15T00:01:41.527Z,100886.72
2022-11-15T00:04:30.806Z,100896.28
2022-11-15T00:07:48.130Z,100908.75
2022-11-15T00:10:29.477Z,100902.53
2022-11-15T00:13:18.836Z,100914.97
2022-11-15T00:16:08.540Z,100922.66
2022-11-15T00:18:57.871Z,100919.53
2022-11-15T00:21:47.290Z,100924.50
2022-11-15T00:24:36.722Z,100906.25
2022-11-15T00:27:25.987Z,100933.66
2022-11-15T00:30:15.771Z,100946.94
2022-11-15T00:33:09.091Z,100951.53
2022-11-15T00:36:06.990Z,100940.72
2022-11-15T00:38:56.046Z,100946.94
2022-11-15T00:41:45.114Z,100949.84
2022-11-15T00:44:34.336Z,100968.16
2022-11-15T00:47:23.686Z,100970.66
2022-11-15T00:50:15.391Z,100975.63
2022-11-15T00:53:04.769Z,100962.53
2022-11-15T00:55:54.530Z,100983.72
2022-11-15T00:58:44.425Z,100977.28
2022-11-15T01:01:33.729Z,100991.19
2022-11-15T01:04:23.002Z,100982.25
2022-11-15T01:07:12.457Z,100991.59
2022-11-15T01:10:01.743Z,100938.44
2022-11-15T01:12:51.743Z,100994.28
2022-11-15T01:15:44.315Z,101005.50
2022-11-15T01:18:33.699Z,101004.69
2022-11-15T01:21:23.412Z,101015.91
2022-11-15T01:24:15.904Z,100967.28
2022-11-15T01:27:05.057Z,100993.03
2022-11-15T01:29:54.967Z,101006.91
2022-11-15T01:32:44.200Z,101007.53
2022-11-15T01:35:33.494Z,101008.34
2022-11-15T01:38:23.093Z,101004.38
2022-11-15T01:41:24.820Z,100995.50
2022-11-15T01:44:52.181Z,101009.63
2022-11-15T01:47:45.674Z,100809.41
2022-11-15T01:50:36.132Z,100917.75
2022-11-15T01:53:28.042Z,101003.72
2022-11-15T01:56:25.439Z,101005.81
2022-11-15T01:59:15.637Z,100991.69
2022-11-15T02:02:05.110Z,100992.47
2022-11-15T02:04:54.293Z,100942.63
2022-11-15T02:07:43.867Z,100992.03
2022-11-15T02:10:32.951Z,100976.88
2022-11-15T02:13:22.433Z,100979.53
2022-11-15T02:16:33.937Z,100982.06
2022-11-15T02:19:42.770Z,100995.16
2022-11-15T02:22:54.732Z,100997.44
2022-11-15T02:25:59.526Z,100998.44
2022-11-15T02:29:11.126Z,100995.53
2022-11-15T02:32:48.342Z,100997.44
2022-11-15T02:35:48.175Z,100993.19
2022-11-15T02:38:57.876Z,101000.69
2022-11-15T02:42:30.198Z,100992.75
2022-11-15T02:45:29.967Z,100980.22
2022-11-15T02:48:20.652Z,100948.03
2022-11-15T02:51:11.262Z,100986.00
2022-11-15T02:54:00.321Z,100988.25
2022-11-15T02:56:50.232Z,100964.75
2022-11-15T02:59:54.369Z,100958.97
2022-11-15T03:02:46.430Z,100971.34
2022-11-15T03:05:40.264Z,100973.63
2022-11-15T03:08:40.921Z,100986.16
2022-11-15T03:11:32.555Z,100970.53
2022-11-15T03:14:33.705Z,100973.81
2022-11-15T03:17:38.874Z,100959.69
2022-11-15T03:20:30.916Z,100969.59
2022-11-15T03:23:21.021Z,100955.03
2022-11-15T03:26:17.295Z,100886.56
2022-11-15T03:29:16.868Z,100943.75
2022-11-15T03:32:17.009Z,100947.88
2022-11-15T03:35:21.644Z,100918.31
2022-11-15T03:38:26.311Z,100927.44
2022-11-15T03:41:47.317Z,100851.31
2022-11-15T03:44:48.203Z,100931.88
2022-11-15T03:48:00.851Z,100922.09
2022-11-15T03:50:50.207Z,100916.31
2022-11-15T03:53:39.628Z,100911.88
2022-11-15T03:56:28.743Z,100902.22
2022-11-15T03:59:18.330Z,100903.88
2022-11-15T04:02:08.415Z,100877.66
2022-11-15T04:04:57.615Z,100888.22
2022-11-15T04:07:46.896Z,100870.97
2022-11-15T04:10:36.762Z,100887.16
2022-11-15T04:13:26.645Z,100872.41
2022-11-15T04:16:15.810Z,100867.13
2022-11-15T04:19:22.761Z,100864.41
2022-11-15T04:22:30.354Z,100865.03
2022-11-15T04:25:23.149Z,100865.41
2022-11-15T04:28:14.203Z,100862.44
2022-11-15T04:31:03.869Z,100858.69
2022-11-15T04:33:53.737Z,100840.38
2022-11-15T04:37:00.900Z,100841.97
2022-11-15T04:39:50.488Z,100832.75
2022-11-15T04:42:39.745Z,100825.06
2022-11-15T04:45:29.074Z,100830.19
2022-11-15T04:48:18.377Z,100833.50
2022-11-15T04:51:08.093Z,100818.38
2022-11-15T04:53:57.731Z,100830.81
2022-11-15T04:56:47.157Z,100813.78
2022-11-15T04:59:36.620Z,100817.84
2022-11-15T05:02:26.244Z,100801.41
2022-11-15T05:05:15.654Z,100769.88
2022-11-15T05:08:05.225Z,100784.25
2022-11-15T05:10:54.575Z,100787.09
2022-11-15T05:13:44.309Z,100782.28
2022-11-15T05:16:33.739Z,100747.63
2022-11-15T05:19:23.107Z,100770.97
2022-11-15T05:22:12.393Z,100759.50
2022-11-15T05:25:01.846Z,100728.31
2022-11-15T05:27:51.499Z,100747.59
2022-11-15T05:30:41.348Z,100740.19
2022-11-15T05:33:31.038Z,100739.13
2022-11-15T05:36:38.265Z,100719.63
2022-11-15T05:39:28.515Z,100733.00
2022-11-15T05:42:19.381Z,100707.72
2022-11-15T05:45:11.302Z,100598.91
2022-11-15T05:48:03.080Z,100644.28
2022-11-15T05:50:52.567Z,100717.09
2022-11-15T05:53:42.488Z,100711.78
2022-11-15T05:56:32.954Z,100683.56
2022-11-15T05:59:23.383Z,100696.56
2022-11-15T06:02:14.063Z,100698.22
2022-11-15T06:05:03.397Z,100702.72
2022-11-15T06:07:52.895Z,100703.53
2022-11-15T06:10:42.190Z,100697.75
2022-11-15T06:13:31.565Z,100705.19
2022-11-15T06:16:20.784Z,100688.78
2022-11-15T06:19:10.874Z,100687.25
2022-11-15T06:22:00.355Z,100680.28
2022-11-15T06:24:49.817Z,100668.72
2022-11-15T06:27:39.159Z,100623.75
2022-11-15T06:30:29.779Z,100653.63
2022-11-15T06:33:18.716Z,100649.84
2022-11-15T06:36:14.679Z,100512.22
2022-11-15T06:39:07.675Z,100650.25
2022-11-15T06:41:57.042Z,100629.53
2022-11-15T06:44:46.402Z,100641.13
2022-11-15T06:47:35.579Z,100663.56
2022-11-15T06:50:25.302Z,100684.00
2022-11-15T06:53:15.221Z,100682.41
2022-11-15T06:56:08.514Z,100634.72
2022-11-15T06:58:58.902Z,100663.56
2022-11-15T07:01:48.200Z,100671.72
2022-11-15T07:04:38.570Z,100667.09
2022-11-15T07:07:27.662Z,100672.31
2022-11-15T07:10:18.392Z,100676.09
2022-11-15T07:13:08.203Z,100666.72
2022-11-15T07:15:57.989Z,100667.34
2022-11-15T07:18:47.158Z,100650.31
2022-11-15T07:21:36.631Z,100606.41
2022-11-15T07:24:26.529Z,100640.19
2022-11-15T07:27:16.326Z,100620.13
2022-11-15T07:30:05.773Z,100584.47
2022-11-15T07:33:02.394Z,100605.72
2022-11-15T07:35:52.767Z,100589.41
2022-11-15T07:38:43.167Z,100607.63
2022-11-15T07:41:33.548Z,100595.53
2022-11-15T07:44:22.893Z,100593.91
2022-11-15T07:47:12.195Z,100598.41
2022-11-15T07:50:01.437Z,100599.22
2022-11-15T07:52:55.683Z,100594.03
2022-11-15T07:55:45.210Z,100599.22
2022-11-15T07:58:34.658Z,100603.13
2022-11-15T08:01:24.323Z,100616.59
2022-11-15T08:04:14.786Z,100627.78
2022-11-15T08:07:04.496Z,100616.09
2022-11-15T08:09:54.161Z,100626.00
2022-11-15T08:12:43.147Z,100633.31
2022-11-15T08:15:32.868Z,100642.44
2022-11-15T08:18:22.375Z,100617.72
2022-11-15T08:21:18.062Z,100639.72
2022-11-15T08:24:08.847Z,100639.25
2022-11-15T08:26:57.791Z,100644.06
2022-11-15T08:29:47.742Z,100634.13
2022-11-15T08:32:37.052Z,100628.94
2022-11-15T08:35:29.185Z,100634.78
2022-11-15T08:38:18.774Z,100637.22
2022-11-15T08:41:08.936Z,100640.53
2022-11-15T08:43:58.334Z,100645.16
2022-11-15T08:46:49.652Z,100647.88
2022-11-15T08:49:39.167Z,100628.72
2022-11-15T08:52:28.913Z,100623.91
2022-11-15T08:55:18.429Z,100649.34
2022-11-15T08:58:08.417Z,100636.03
2022-11-15T09:00:58.000Z,100630.25
2022-11-15T09:03:48.144Z,100638.50
2022-11-15T09:06:40.910Z,100628.94
2022-11-15T09:09:32.321Z,100633.56
2022-11-15T09:12:22.051Z,100614.19
2022-11-15T09:15:11.893Z,100637.44
2022-11-15T09:18:03.765Z,100651.94
2022-11-15T09:20:53.196Z,100615.44
2022-11-15T09:23:42.822Z,100651.25
2022-11-15T09:26:31.922Z,100653.97
2022-11-15T09:29:21.759Z,100651.34
2022-11-15T09:32:10.973Z,100631.72
2022-11-15T09:35:01.204Z,100651.59
2022-11-15T09:37:55.965Z,100651.47
2022-11-15T09:40:45.483Z,100651.00
2022-11-15T09:43:50.099Z,100639.97
2022-11-15T09:46:46.743Z,100591.34
2022-11-15T09:49:38.139Z,100660.19
2022-11-15T09:52:28.649Z,100651.09
2022-11-15T09:54:59.848Z,100659.47
2022-11-15T09:57:41.542Z,100659.75
2022-11-15T10:03:17.924Z,100674.81
2022-11-15T10:05:51.655Z,100597.78
2022-11-15T10:08:44.843Z,100664.44
2022-11-15T10:11:39.383Z,100662.94
2022-11-15T10:14:32.572Z,100662.94
2022-11-15T10:17:24.877Z,100588.97
2022-11-15T10:20:12.808Z,100664.97
2022-11-15T10:22:51.646Z,100677.13
2022-11-15T10:25:26.822Z,100680.66
2022-11-15T10:28:09.360Z,100606.97
2022-11-15T10:30:48.819Z,100609.09
2022-11-15T10:33:39.244Z,100707.28
2022-11-15T10:36:27.602Z,100717.06
2022-11-15T10:39:00.622Z,100701.72
2022-11-15T10:41:37.562Z,100643.63
2022-11-15T10:44:21.534Z,100723.16
2022-11-15T10:46:59.502Z,100723.53
2022-11-15T10:49:33.026Z,100723.25
2022-11-15T10:52:18.096Z,100700.56
2022-11-15T10:55:15.246Z,100730.47
2022-11-15T10:57:58.179Z,100740.53
2022-11-15T11:00:49.475Z,100730.97
2022-11-15T11:03:32.361Z,100726.03
2022-11-15T11:06:18.088Z,100658.00
2022-11-15T11:09:06.754Z,100667.56
2022-11-15T11:11:52.223Z,100680.34
2022-11-15T11:14:33.491Z,100659.56
2022-11-15T11:17:14.161Z,100728.03
2022-11-15T11:20:12.537Z,100729.06
2022-11-15T11:23:01.863Z,100730.28
2022-11-15T11:25:36.560Z,100736.06
2022-11-15T11:28:30.246Z,100739.59
2022-11-15T11:31:17.006Z,100743.69
2022-11-15T11:33:57.916Z,100734.97
2022-11-15T11:37:07.048Z,100730.91
2022-11-15T11:40:06.116Z,100752.81
2022-11-15T11:42:52.022Z,100753.28
2022-11-15T11:45:53.082Z,100762.09
2022-11-15T11:48:48.119Z,100702.94
2022-11-15T11:51:55.722Z,100763.50
2022-11-15T11:54:51.544Z,100785.44
2022-11-15T11:57:57.791Z,100706.91
2022-11-15T12:00:31.700Z,100792.91
2022-11-15T12:03:03.091Z,100812.50
2022-11-15T12:06:00.680Z,100817.66
2022-11-15T12:09:00.457Z,100823.88
2022-11-15T12:11:37.722Z,100831.25
2022-11-15T12:14:19.874Z,100759.88
2022-11-15T12:16:50.404Z,100839.41
2022-11-15T12:19:21.425Z,100812.94
2022-11-15T12:21:58.303Z,100840.75
2022-11-15T12:24:38.076Z,100852.84
2022-11-15T12:27:26.483Z,100779.53
2022-11-15T12:30:02.957Z,100863.44
2022-11-15T12:32:43.500Z,100791.00
2022-11-15T12:35:45.504Z,100872.41
2022-11-15T12:38:55.397Z,100872.00
2022-11-15T12:41:30.084Z,100857.78
2022-11-15T12:44:02.166Z,100878.03
2022-11-15T12:46:33.551Z,100883.22
2022-11-15T12:49:26.150Z,100879.94
2022-11-15T12:52:09.175Z,100872.28
2022-11-15T12:54:42.940Z,100875.69
2022-11-15T12:57:17.841Z,100877.59
2022-11-15T13:00:29.709Z,100874.56
2022-11-15T13:03:27.616Z,100882.91
2022-11-15T13:06:02.683Z,100882.03
2022-11-15T13:08:46.272Z,100872.91
2022-11-15T13:11:51.059Z,100877.13
2022-11-15T13:14:45.963Z,100875.50
2022-11-15T13:17:32.478Z,100877.56
2022-11-15T13:20:16.734Z,100882.97
2022-11-15T13:22:53.874Z,100877.75
2022-11-15T13:25:51.508Z,100873.66
2022-11-15T13:28:32.056Z,100875.13
2022-11-15T13:31:17.176Z,100794.66
2022-11-15T13:33:49.227Z,100875.94
2022-11-15T13:36:28.478Z,100883.75
2022-11-15T13:39:04.446Z,100805.00
2022-11-15T13:41:50.575Z,100874.66
2022-11-15T13:44:34.069Z,100866.72
2022-11-15T13:47:08.412Z,100828.63
2022-11-15T13:49:40.154Z,100873.63
2022-11-15T13:52:19.563Z,100863.06
2022-11-15T13:55:00.404Z,100823.03
2022-11-15T13:57:42.971Z,100888.38
2022-11-15T14:00:33.562Z,100884.69
2022-11-15T14:03:25.260Z,100874.31
2022-11-15T14:06:14.613Z,100901.75
2022-11-15T14:09:18.476Z,100888.44
2022-11-15T14:11:57.280Z,100820.81
2022-11-15T14:14:31.145Z,100819.13
2022-11-15T14:17:03.853Z,100797.13
2022-11-15T14:19:35.235Z,100880.53
2022-11-15T14:22:30.708Z,100884.38
2022-11-15T14:25:17.774Z,100878.31
2022-11-15T14:28:23.730Z,100853.03
2022-11-15T14:30:58.724Z,100875.44
2022-11-15T14:33:34.963Z,100866.88
2022-11-15T14:36:15.162Z,100869.44
2022-11-15T14:38:46.564Z,100851.19
2022-11-15T14:41:28.774Z,100865.50
2022-11-15T14:43:59.393Z,100865.38
2022-11-15T14:46:30.367Z,100843.09
2022-11-15T14:49:01.555Z,100854.09
2022-11-15T14:51:35.268Z,100853.28
2022-11-15T14:54:07.121Z,100837.47
2022-11-15T14:56:38.322Z,100852.03
2022-11-15T14:59:09.814Z,100846.66
2022-11-15T15:01:40.962Z,100857.84
2022-11-15T15:04:13.810Z,100797.69
2022-11-15T15:06:45.235Z,100847.72
2022-11-15T15:09:16.582Z,100861.44
2022-11-15T15:11:48.181Z,100859.97
2022-11-15T15:14:19.420Z,100867.47
2022-11-15T15:16:50.698Z,100870.41
2022-11-15T15:19:22.122Z,100856.69
2022-11-15T15:21:54.667Z,100874.53
2022-11-15T15:24:25.690Z,100883.25
2022-11-15T15:26:57.000Z,100873.25
2022-11-15T15:29:28.269Z,100857.66
2022-11-15T15:31:59.453Z,100870.34
2022-11-15T15:34:30.726Z,100867.47
2022-11-15T15:37:28.781Z,100860.63
2022-11-15T15:40:01.193Z,100859.13
2022-11-15T15:42:33.617Z,100858.28
2022-11-15T15:45:04.897Z,100842.53
2022-11-15T15:47:36.769Z,100861.44
2022-11-15T15:50:21.579Z,100860.22
2022-11-15T15:52:54.200Z,100775.72
2022-11-15T15:55:25.668Z,100860.59
2022-11-15T15:57:57.431Z,100838.81
2022-11-15T16:00:29.113Z,100842.16
2022-11-15T16:03:00.861Z,100850.84
2022-11-15T16:05:32.263Z,100817.66
2022-11-15T16:08:04.036Z,100839.22
2022-11-15T16:10:39.545Z,100683.63
2022-11-15T16:13:10.742Z,100823.03
2022-11-15T16:15:42.040Z,100826.56
2022-11-15T16:18:19.110Z,100741.69
2022-11-15T16:20:54.395Z,100840.47
2022-11-15T16:23:26.865Z,100843.81
2022-11-15T16:25:59.169Z,100846.31
2022-11-15T16:28:33.395Z,100835.75
2022-11-15T16:31:09.057Z,100841.34
2022-11-15T16:33:40.868Z,100841.78
2022-11-15T16:36:30.436Z,100848.03
2022-11-15T16:39:06.243Z,100820.81
2022-11-15T16:41:37.279Z,100826.81
2022-11-15T16:44:11.587Z,100839.50
2022-11-15T16:46:45.215Z,100843.84
2022-11-15T16:49:17.137Z,100821.25
2022-11-15T16:51:50.286Z,100811.44
2022-11-15T16:54:21.468Z,100808.13
2022-11-15T16:56:52.809Z,100802.13
2022-11-15T16:59:23.955Z,100818.53
2022-11-15T17:01:55.046Z,100815.59
2022-11-15T17:04:26.161Z,100813.94
2022-11-15T17:06:57.468Z,100811.69
2022-11-15T17:09:28.656Z,100809.81
2022-11-15T17:11:59.925Z,100792.56
2022-11-15T17:14:31.489Z,100795.91
2022-11-15T17:17:02.594Z,100810.81
2022-11-15T17:19:34.134Z,100806.91
2022-11-15T17:22:06.402Z,100801.50
2022-11-15T17:24:37.660Z,100792.75
2022-11-15T17:27:08.793Z,100793.81
2022-11-15T17:29:40.386Z,100794.03
2022-11-15T17:32:11.836Z,100781.97
2022-11-15T17:34:42.966Z,100781.34
2022-11-15T17:37:14.055Z,100782.59
2022-11-15T17:39:45.248Z,100784.47
2022-11-15T17:42:16.362Z,100761.63
2022-11-15T17:44:47.699Z,100764.13
2022-11-15T17:47:18.982Z,100783.00
2022-11-15T17:49:50.165Z,100770.13
2022-11-15T17:52:21.361Z,100772.00
2022-11-15T17:54:52.731Z,100762.66
2022-11-15T17:57:23.903Z,100767.44
2022-11-15T17:59:55.098Z,100761.22
2022-11-15T18:02:26.227Z,100753.53
2022-11-15T18:04:57.383Z,100731.28
2022-11-15T18:07:28.679Z,100744.56
2022-11-15T18:09:59.807Z,100741.69
2022-11-15T18:12:30.958Z,100725.88
2022-11-15T18:15:02.670Z,100726.31
2022-11-15T18:17:33.865Z,100733.41
2022-11-15T18:20:05.666Z,100718.88
2022-11-15T18:22:36.902Z,100734.41
2022-11-15T18:25:08.465Z,100719.69
2022-11-15T18:27:39.686Z,100721.16
2022-11-15T18:30:11.760Z,100727.56
2022-11-15T18:32:42.656Z,100729.75
2022-11-15T18:35:13.617Z,100720.75
2022-11-15T18:37:44.959Z,100711.81
2022-11-15T18:40:16.426Z,100724.72
2022-11-15T18:42:47.954Z,100717.63
2022-11-15T18:48:10.204Z,100715.75
2022-11-15T18:50:41.223Z,100707.03
2022-11-15T18:53:12.299Z,100696.03
2022-11-15T18:55:43.492Z,100715.16
2022-11-15T18:58:15.004Z,100708.50
2022-11-15T19:00:46.177Z,100722.19
2022-11-15T19:03:21.808Z,100706.84
2022-11-15T19:05:55.059Z,100717.22
2022-11-15T19:08:27.964Z,100673.66
2022-11-15T19:11:09.255Z,100708.06
2022-11-15T19:13:40.832Z,100687.78
2022-11-15T19:16:17.275Z,100715.59
2022-11-15T19:18:48.514Z,100712.66
2022-11-15T19:21:19.618Z,100687.78
2022-11-15T19:23:50.942Z,100713.06
2022-11-15T19:26:24.585Z,100704.78
2022-11-15T19:29:00.502Z,100545.94
2022-11-15T19:31:33.048Z,100688.41
2022-11-15T19:34:06.854Z,100635.94
2022-11-15T19:36:42.839Z,100679.69
2022-11-15T19:39:15.588Z,100656.44
2022-11-15T19:41:46.754Z,100706.84
2022-11-15T19:44:18.168Z,100727.84
2022-11-15T19:46:49.257Z,100712.50
2022-11-15T19:49:20.341Z,100682.81
2022-11-15T19:51:51.487Z,100716.41
2022-11-15T19:54:22.707Z,100713.53
2022-11-15T19:56:54.492Z,100707.31
2022-11-15T19:59:26.051Z,100721.41
2022-11-15T20:01:57.178Z,100651.72
2022-11-15T20:04:28.334Z,100713.13
2022-11-15T20:06:59.631Z,100704.19
2022-11-15T20:09:30.709Z,100708.53
2022-11-15T20:12:02.078Z,100689.03
2022-11-15T20:14:33.447Z,100704.41
2022-11-15T20:17:04.535Z,100703.56
2022-11-15T20:19:35.654Z,100685.28
2022-11-15T20:22:06.764Z,100706.06
2022-11-15T20:24:37.850Z,100689.47
2022-11-15T20:27:09.945Z,100700.66
2022-11-15T20:29:43.922Z,100704.47
2022-11-15T20:32:16.201Z,100710.44
2022-11-15T20:34:51.432Z,100717.31
2022-11-15T20:37:25.090Z,100712.72
2022-11-15T20:39:56.286Z,100705.47
2022-11-15T20:42:27.355Z,100699.84
2022-11-15T20:44:58.392Z,100712.91
2022-11-15T20:47:32.993Z,100725.81
2022-11-15T20:50:27.637Z,100707.34
2022-11-15T20:52:58.514Z,100712.28
2022-11-15T20:55:29.651Z,100701.72
2022-11-15T20:58:00.730Z,100702.56
2022-11-15T21:00:31.870Z,100720.19
2022-11-15T21:03:03.057Z,100725.19
2022-11-15T21:05:35.600Z,100728.91
2022-11-15T21:08:06.916Z,100717.31
2022-11-15T21:10:56.943Z,100647.81
2022-11-15T21:13:28.419Z,100721.44
2022-11-15T21:15:59.869Z,100711.09
2022-11-15T21:18:32.318Z,100734.13
2022-11-15T21:21:10.008Z,100737.66
2022-11-15T21:23:42.225Z,100724.59
2022-11-15T21:26:13.338Z,100736.66
2022-11-15T21:28:45.059Z,100736.66
2022-11-15T21:31:16.957Z,100736.00
2022-11-15T21:33:48.269Z,100725.22
2022-11-15T21:36:19.940Z,100734.97
2022-11-15T21:38:51.147Z,100734.75
2022-11-15T21:41:23.403Z,100736.00
2022-11-15T21:43:54.504Z,100733.72
2022-11-15T21:46:25.622Z,100730.19
2022-11-15T21:48:57.161Z,100733.53
2022-11-15T21:51:28.414Z,100727.72
2022-11-15T21:54:00.609Z,100733.94
2022-11-15T21:56:31.604Z,100742.88
2022-11-15T21:59:02.898Z,100742.88
2022-11-15T22:01:52.476Z,100743.50
2022-11-15T22:04:25.435Z,100746.41
2022-11-15T22:06:56.558Z,100720.47
2022-11-15T22:09:27.646Z,100753.06
2022-11-15T22:11:58.725Z,100742.66
2022-11-15T22:14:29.782Z,100756.38
2022-11-15T22:17:00.955Z,100729.81
2022-11-15T22:19:32.352Z,100758.88
2022-11-15T22:22:03.617Z,100764.47
2022-11-15T22:24:34.715Z,100756.78
2022-11-15T22:27:06.417Z,100748.91
2022-11-15T22:29:37.475Z,100755.06
2022-11-15T22:32:08.684Z,100723.97
2022-11-15T22:34:39.899Z,100761.78
2022-11-15T22:37:20.658Z,100761.16
2022-11-15T22:39:52.354Z,100765.09
2022-11-15T22:42:24.822Z,100761.78
2022-11-15T22:44:55.897Z,100755.28
2022-11-15T22:47:27.541Z,100762.19
2022-11-15T22:49:58.695Z,100766.34
2022-11-15T22:52:29.839Z,100769.44
2022-11-15T22:55:01.179Z,100756.34
2022-11-15T22:57:32.826Z,100764.22
2022-11-15T23:00:04.302Z,100776.28
2022-11-15T23:02:35.454Z,100782.09
2022-11-15T23:05:08.058Z,100776.88
2022-11-15T23:07:39.426Z,100807.25
2022-11-15T23:10:29.278Z,100812.84
2022-11-15T23:13:17.766Z,100726.63
2022-11-15T23:16:10.202Z,100825.31
2022-11-15T23:18:43.642Z,100787.31
2022-11-15T23:21:38.235Z,100814.31
2022-11-15T23:24:12.472Z,100804.94
2022-11-15T23:26:44.782Z,100807.84
2022-11-15T23:29:19.111Z,100837.81
2022-11-15T23:32:08.534Z,100845.06
2022-11-15T23:34:42.673Z,100834.47
2022-11-15T23:37:16.537Z,100820.75
2022-11-15T23:39:47.811Z,100822.00
2022-11-15T23:42:20.925Z,100847.34
2022-11-15T23:44:52.386Z,100843.34
2022-11-15T23:47:23.591Z,100845.63
2022-11-15T23:49:54.736Z,100856.44
2022-11-15T23:52:26.753Z,100862.91
2022-11-15T23:54:58.056Z,100862.69
2022-11-15T23:57:29.309Z,100859.16
